• Join FlightAware (Why Join?)
  • Login
  • US Flag 
08:14PM EDT


 

Airport Tracker/Info


-or-


 

Live Flight TrackerFlight Track Log ✈ DAL268 ✈ 23-Jul-2013 ✈ KSFO - KJFK

Flight Track Log - Related Links

Times and Time Zones

All times are in EDT time to prevent confusion due to time zone crossing. See the DAL268 flight status page for this flight to view local times or setup timezone preferences in your user account.

Time Position Orientation Groundspeed Altitude Reporting Facility
EDT Latitude Longitude Course Direction KTS MPH feet Rate Location/Type
02:22PM 37.6150 -122.3820 233° Southwest 10 12  Level FlightAware
02:24PM 37.6150 -122.3800 90° East 9 10  Level FlightAware
02:25PM 37.6160 -122.3800 360° North  Level FlightAware
02:27PM 37.6150 -122.3810 63° Northeast 16 18  Level FlightAware
02:28PM 37.7042 -122.0729 63° Northeast  Level FlightAware Approximate
02:28PM 37.6140 -122.3810 180° South 23 26  Level FlightAware
02:29PM 37.6130 -122.3770 108° East 17 20  Level FlightAware
02:29PM 37.6120 -122.3760 142° Southeast 16 18  Level FlightAware
02:29PM 37.6110 -122.3760 180° South 34 39  Level FlightAware
02:30PM 37.6080 -122.3780 208° Southwest 15 17  Level FlightAware
02:30PM 37.6070 -122.3790 218° Southwest 34 39  Level FlightAware
02:31PM 37.6060 -122.3790 180° South 25 29  Level FlightAware
02:33PM 37.6882 -122.1188 67° East  Level FlightAware Approximate
02:34PM 37.7395 -121.9830 65° Northeast  Level FlightAware Approximate
02:35PM 37.7893 -121.8462 65° Northeast  Level FlightAware Approximate
02:36PM 37.8312 -121.7064 67° East  Level FlightAware Approximate
02:37PM 37.8787 -121.5688 72° East  Level FlightAware Approximate
02:38PM 37.9244 -121.4306 63° Northeast  Level FlightAware Approximate
02:39PM 37.9720 -121.2923 69° East  Level FlightAware Approximate
02:40PM 38.0136 -121.1507 69° East  Level FlightAware Approximate
02:41PM 38.0616 -121.0126 63° Northeast  Level FlightAware Approximate
02:42PM 38.0990 -120.8701 70° East  Level FlightAware Approximate
02:43PM 38.1286 -120.7238 70° East  Level FlightAware Approximate
02:44PM 38.1684 -120.5810 70° East  Level FlightAware Approximate
02:45PM 38.2064 -120.4375 74° East  Level FlightAware Approximate
02:46PM 38.2383 -120.2914 74° East  Level FlightAware Approximate
02:47PM 38.2700 -120.1452 75° East  Level FlightAware Approximate
02:48PM 38.3030 -119.9995 73° East  Level FlightAware Approximate
02:49PM 38.3370 -119.8540 73° East  Level FlightAware Approximate
02:50PM 38.3708 -119.7084 73° East  Level FlightAware Approximate
02:51PM 38.4044 -119.5626 74° East  Level FlightAware Approximate
02:52PM 38.4378 -119.4167 74° East  Level FlightAware Approximate
02:52PM 37.6070 -122.3810 360° North 2 2  Level FlightAware
02:53PM 37.6080 -122.3800 38° Northeast 56 64 60 Level FlightAware
02:53PM 37.6230 -122.3700 28° Northeast 165 190 100 840 Climbing FlightAware
02:54PM 37.6326 -122.3640 26° Northeast 166 191 600 2,760 Climbing FlightAware ADS-B
02:54PM 37.6347 -122.3620 37° Northeast 167 192 800 2,700 Climbing FlightAware ADS-B
02:54PM 37.6396 -122.3580 33° Northeast 167 192 1,100 1,980 Climbing FlightAware ADS-B
02:54PM 37.6430 -122.3530 49° Northeast 171 197 1,300 1,380 Climbing FlightAware ADS-B
02:54PM 37.6488 -122.3450 48° Northeast 185 213 1,500 900 Climbing FlightAware ADS-B
02:54PM 37.6598 -122.3310 45° Northeast 216 249 1,700 1,080 Climbing FlightAware ADS-B
02:55PM 37.6718 -122.3160 45° Northeast 239 275 2,100 1,680 Climbing FlightAware ADS-B
02:55PM 37.6849 -122.3010 42° Northeast 252 290 2,600 1,860 Climbing FlightAware ADS-B
02:55PM 37.6991 -122.2830 45° Northeast 267 307 3,100 1,920 Climbing FlightAware ADS-B
02:55PM 37.7132 -122.2660 44° Northeast 280 322 3,600 2,520 Climbing FlightAware ADS-B
02:56PM 37.7346 -122.2400 44° Northeast 279 321 4,700 2,820 Climbing FlightAware ADS-B
02:56PM 37.7500 -122.2210 44° Northeast 281 323 5,500 2,760 Climbing FlightAware ADS-B
02:56PM 37.7579 -122.2110 45° Northeast 281 323 5,900 2,760 Climbing FlightAware ADS-B
02:56PM 37.7611 -122.2060 51° Northeast 281 323 6,100 3,000 Climbing FlightAware ADS-B
02:56PM 37.7676 -122.1940 56° Northeast 281 323 6,500 2,700 Climbing FlightAware ADS-B
02:56PM 37.7696 -122.1900 58° Northeast 280 322 6,600 2,400 Climbing FlightAware ADS-B
02:57PM 37.7737 -122.1790 65° Northeast 281 323 6,900 2,700 Climbing FlightAware ADS-B
02:57PM 37.7810 -122.1530 70° East 283 326 7,700 2,520 Climbing FlightAware ADS-B
02:57PM 37.7876 -122.1270 72° East 286 329 8,300 2,340 Climbing FlightAware ADS-B
02:57PM 37.7944 -122.1020 71° East 288 331 9,000 2,400 Climbing FlightAware ADS-B
02:58PM 37.8008 -122.0770 72° East 290 334 9,600 1,980 Climbing FlightAware ADS-B
02:58PM 37.8122 -122.0330 72° East 304 350 10,400 1,440 Climbing FlightAware ADS-B
02:59PM 37.8262 -121.9790 72° East 330 380 11,000 1,140 Climbing FlightAware ADS-B
02:59PM 37.8419 -121.9180 72° East 357 411 11,600 1,440 Climbing FlightAware ADS-B
03:00PM 37.8584 -121.8550 72° East 371 427 12,500 1,920 Climbing FlightAware ADS-B
03:00PM 37.8747 -121.7920 72° East 375 432 13,600 2,220 Climbing FlightAware ADS-B
03:01PM 37.8910 -121.7280 72° East 376 433 14,800 2,160 Climbing FlightAware ADS-B
03:01PM 37.9077 -121.6630 72° East 380 437 15,800 1,980 Climbing FlightAware ADS-B
03:02PM 37.9250 -121.5950 72° East 385 443 16,900 1,800 Climbing FlightAware ADS-B
03:02PM 37.9433 -121.5240 72° East 393 452 17,800 1,620 Climbing FlightAware ADS-B
03:03PM 37.9616 -121.4530 72° East 398 458 18,700 1,500 Climbing FlightAware ADS-B
03:03PM 37.9758 -121.4120 66° East 408 470 19,100 1,440 Climbing FlightAware ADS-B
03:04PM 38.0030 -121.3480 62° Northeast 412 474 19,900 1,560 Climbing FlightAware ADS-B
03:04PM 38.0413 -121.2560 62° Northeast 420 483 21,000 1,380 Climbing FlightAware ADS-B
03:05PM 38.0803 -121.1610 62° Northeast 431 496 21,900 1,260 Climbing FlightAware ADS-B
03:06PM 38.1210 -121.0570 64° Northeast 436 502 22,900 1,260 Climbing FlightAware
03:07PM 38.1460 -120.9550 73° East 442 509 23,800 1,200 Climbing FlightAware
03:07PM 38.1660 -120.8540 76° East 449 517 24,600 1,080 Climbing FlightAware
03:08PM 38.1870 -120.7340 77° East 457 526 25,400 1,020 Climbing FlightAware
03:09PM 38.2020 -120.6390 79° East 463 533 26,000 1,020 Climbing FlightAware
03:09PM 38.2230 -120.5180 78° East 466 536 26,800 1,080 Climbing FlightAware
03:10PM 38.2390 -120.4200 78° East 470 541 27,500 1,080 Climbing FlightAware
03:10PM 38.2550 -120.3240 78° East 472 543 28,100 960 Climbing FlightAware
03:11PM 38.2750 -120.2090 77° East 473 544 28,900 1,140 Climbing FlightAware
03:12PM 38.2920 -120.1040 78° East 473 544 29,700 1,200 Climbing FlightAware
03:13PM 38.3120 -119.9840 78° East 474 545 30,500 1,200 Climbing FlightAware
03:13PM 38.3310 -119.8740 78° East 473 544 31,400 1,140 Climbing FlightAware
03:14PM 38.3480 -119.7700 78° East 475 547 32,000 960 Climbing FlightAware
03:15PM 38.3650 -119.6660 78° East 475 547 32,600 1,020 Climbing FlightAware
03:15PM 38.3840 -119.5450 79° East 474 545 33,400 1,080 Climbing FlightAware
03:16PM 38.4030 -119.4310 78° East 469 540 34,200 1,080 Climbing FlightAware
03:17PM 38.4210 -119.3170 79° East 467 537 35,000 960 Climbing FlightAware
03:17PM 38.4400 -119.1990 78° East 469 540 35,600 720 Climbing FlightAware
03:18PM 38.4550 -119.1010 79° East 472 543 36,000 660 Climbing FlightAware
03:19PM 38.4740 -118.9810 79° East 472 543 36,500 720 Climbing FlightAware
03:19PM 38.4890 -118.8890 78° East 471 542 37,000 360 Climbing FlightAware
03:20PM 38.5090 -118.7600 79° East 464 534 37,000  Level FlightAware
03:21PM 38.5380 -118.5710 79° East 460 529 37,000  Level FlightAware
03:22PM 38.5520 -118.4760 79° East 460 529 37,000  Level FlightAware
03:23PM 38.5720 -118.3480 79° East 461 531 37,000  Level FlightAware
03:23PM 38.5870 -118.2460 79° East 462 532 37,000  Level FlightAware
03:24PM 38.6030 -118.1370 79° East 464 534 37,000  Level FlightAware
03:25PM 38.6190 -118.0290 79° East 465 535 37,000  Level FlightAware
03:25PM 38.6350 -117.9280 79° East 466 536 37,000  Level FlightAware
03:26PM 38.6470 -117.8450 79° East 466 536 37,000  Level FlightAware
03:27PM 38.6640 -117.7340 79° East 466 536 37,000  Level FlightAware
03:27PM 38.6760 -117.6510 79° East 466 536 37,000  Level FlightAware
03:28PM 38.6890 -117.5680 79° East 466 536 37,000  Level FlightAware
03:29PM 38.7060 -117.4570 79° East 466 536 37,000  Level FlightAware
03:29PM 38.7190 -117.3720 79° East 466 536 37,000  Level FlightAware
03:30PM 38.7350 -117.2610 79° East 466 536 37,000  Level FlightAware
03:31PM 38.7480 -117.1760 79° East 466 536 37,000  Level FlightAware
03:32PM 38.7650 -117.0680 79° East 466 536 37,000  Level FlightAware
03:32PM 38.7770 -116.9850 79° East 466 536 37,000  Level FlightAware
03:33PM 38.7980 -116.8510 79° East 466 536 37,000  Level FlightAware
03:34PM 38.8100 -116.7680 79° East 466 536 37,000  Level FlightAware
03:35PM 38.8270 -116.6570 79° East 466 536 37,000  Level FlightAware
03:35PM 38.8592 -116.3178 79° East 469 540 37,000  Level Salt Lake Center
03:36PM 38.8711 -116.2250 81° East 467 537 37,000  Level Oakland Center
03:37PM 38.8953 -116.0419 80° East 468 539 37,000  Level Oakland Center
03:38PM 38.9233 -115.8247 81° East 466 536 37,000  Level Salt Lake Center
03:39PM 38.9439 -115.6603 81° East 468 539 37,000  Level Salt Lake Center
03:40PM 38.9647 -115.4967 81° East 465 535 37,000  Level Salt Lake Center
03:41PM 38.9906 -115.2986 80° East 468 539 37,000  Level Salt Lake Center
03:42PM 39.0111 -115.1344 81° East 467 537 37,000  Level Salt Lake Center
03:43PM 39.0314 -114.9697 81° East 466 536 37,000  Level Salt Lake Center
03:44PM 39.0519 -114.8025 81° East 474 545 37,000  Level Salt Lake Center
03:51PM 39.1720 -113.7530 81° East 476 548 37,000  Level FlightAware
03:51PM 39.1860 -113.6210 82° East 476 548 37,000  Level FlightAware
03:52PM 39.1980 -113.5110 82° East 476 548 37,000  Level FlightAware
03:53PM 39.2150 -113.3580 82° East 476 548 37,000  Level FlightAware
03:54PM 39.2240 -113.2720 82° East 476 548 37,000  Level FlightAware
03:54PM 39.2386 -113.1310 82° East 476 548 37,000  Level FlightAware ADS-B
03:55PM 39.2476 -113.0440 82° East 476 548 37,000  Level FlightAware ADS-B
03:55PM 39.2571 -112.9520 82° East 477 549 37,000  Level FlightAware ADS-B
03:56PM 39.2658 -112.8670 82° East 477 549 37,000  Level FlightAware ADS-B
03:56PM 39.2755 -112.7720 82° East 477 549 37,000  Level FlightAware ADS-B
03:57PM 39.2845 -112.6820 83° East 478 550 37,000  Level FlightAware ADS-B
03:57PM 39.2932 -112.5960 83° East 478 550 37,000  Level FlightAware ADS-B
03:58PM 39.2981 -112.5530 82° East 478 550 37,000  Level FlightAware ADS-B
03:58PM 39.3104 -112.4910 76° East 479 551 37,000  Level FlightAware ADS-B
03:58PM 39.3243 -112.4460 68° East 481 554 37,000  Level FlightAware ADS-B
03:59PM 39.3532 -112.3670 65° Northeast 482 555 37,000  Level FlightAware ADS-B
03:59PM 39.3839 -112.2840 64° Northeast 483 556 37,000  Level FlightAware ADS-B
04:00PM 39.4193 -112.1880 64° Northeast 484 557 37,000  Level FlightAware ADS-B
04:00PM 39.4489 -112.1070 65° Northeast 484 557 37,000  Level FlightAware ADS-B
04:01PM 39.4800 -112.0220 65° Northeast 484 557 37,000  Level FlightAware ADS-B
04:02PM 39.5123 -111.9330 65° Northeast 485 558 37,000  Level FlightAware ADS-B
04:02PM 39.5468 -111.8380 65° Northeast 486 559 37,000  Level FlightAware ADS-B
04:03PM 39.5759 -111.7580 65° Northeast 486 559 37,000  Level FlightAware ADS-B
04:03PM 39.6054 -111.6760 65° Northeast 487 560 37,000  Level FlightAware ADS-B
04:04PM 39.6341 -111.5960 65° Northeast 486 559 37,000  Level FlightAware ADS-B
04:04PM 39.6628 -111.5160 65° Northeast 487 560 37,000  Level FlightAware ADS-B
04:05PM 39.7007 -111.4100 65° Northeast 487 560 37,000  Level FlightAware ADS-B
04:06PM 39.7430 -111.2920 65° Northeast 488 562 37,000  Level FlightAware ADS-B
04:06PM 39.7726 -111.2090 65° Northeast 489 563 37,000  Level FlightAware ADS-B
04:07PM 39.8014 -111.1270 65° Northeast 489 563 37,000  Level FlightAware ADS-B
04:07PM 39.8302 -111.0460 65° Northeast 489 563 37,000  Level FlightAware ADS-B
04:08PM 39.8669 -110.9410 65° Northeast 489 563 37,000  Level FlightAware ADS-B
04:09PM 39.9136 -110.8080 65° Northeast 490 564 37,000  Level FlightAware ADS-B
04:09PM 39.9420 -110.7270 65° Northeast 491 565 37,000  Level FlightAware ADS-B
04:10PM 39.9860 -110.6010 65° Northeast 491 565 37,000  Level FlightAware
04:11PM 40.0240 -110.4900 66° East 491 565 37,000  Level FlightAware
04:11PM 40.0650 -110.3730 65° Northeast 491 565 37,000  Level FlightAware
04:12PM 40.1020 -110.2630 66° East 491 565 37,000  Level FlightAware
04:13PM 40.1370 -110.1620 66° East 491 565 37,000  Level FlightAware
04:13PM 40.1730 -110.0450 68° East 492 566 37,000  Level FlightAware
04:14PM 40.2000 -109.9540 69° East 492 566 37,000  Level FlightAware
04:15PM 40.2340 -109.8380 69° East 493 567 37,000  Level FlightAware
04:15PM 40.2650 -109.7310 69° East 494 568 37,000  Level FlightAware
04:16PM 40.3020 -109.6020 69° East 493 567 37,000  Level FlightAware
04:17PM 40.3310 -109.5010 69° East 493 567 37,000  Level FlightAware
04:17PM 40.3700 -109.3630 70° East 494 568 37,000  Level FlightAware
04:18PM 40.4040 -109.2430 70° East 494 568 37,000  Level FlightAware
04:19PM 40.4340 -109.1380 69° East 494 568 37,000  Level FlightAware
04:19PM 40.4660 -109.0260 69° East 494 568 37,000  Level FlightAware
04:20PM 40.5030 -108.8940 70° East 494 568 37,000  Level FlightAware
04:21PM 40.5370 -108.7720 70° East 494 568 37,000  Level FlightAware
04:22PM 40.5720 -108.6480 70° East 494 568 37,000  Level FlightAware
04:22PM 40.6030 -108.5360 70° East 494 568 37,000  Level FlightAware
04:23PM 40.6340 -108.4220 70° East 495 570 37,000  Level FlightAware
04:24PM 40.6650 -108.3090 70° East 496 571 37,000  Level FlightAware
04:24PM 40.6950 -108.2010 70° East 495 570 37,000  Level FlightAware
04:25PM 40.7290 -108.0750 70° East 496 571 37,000  Level FlightAware
04:26PM 40.7590 -107.9620 71° East 497 572 37,000  Level FlightAware
04:26PM 40.7930 -107.8370 70° East 499 574 37,000  Level FlightAware
04:27PM 40.8240 -107.7220 70° East 500 575 37,000  Level FlightAware
04:28PM 40.8580 -107.5960 70° East 501 577 37,000  Level FlightAware
04:29PM 40.8890 -107.4770 71° East 502 578 37,000  Level FlightAware
04:29PM 40.9160 -107.3750 71° East 501 577 37,000  Level FlightAware
04:30PM 40.9520 -107.2380 71° East 503 579 37,000  Level FlightAware
04:31PM 40.9940 -107.0770 71° East 504 580 37,000  Level FlightAware
04:32PM 41.0270 -106.9520 71° East 505 581 37,000  Level FlightAware
04:32PM 41.0590 -106.8290 71° East 505 581 37,000  Level FlightAware
04:33PM 41.0910 -106.7020 71° East 505 581 37,000  Level FlightAware
04:34PM 41.1210 -106.5850 71° East 507 583 37,000  Level FlightAware
04:34PM 41.1540 -106.4550 71° East 507 583 37,000  Level FlightAware
04:35PM 41.1830 -106.3410 71° East 506 582 37,000  Level FlightAware
04:36PM 41.2140 -106.2170 72° East 507 583 37,000  Level FlightAware
04:36PM 41.2400 -106.1160 71° East 507 583 37,000  Level FlightAware
04:37PM 41.2720 -105.9850 72° East 506 582 37,000  Level FlightAware
04:38PM 41.3010 -105.8710 71° East 507 583 37,000  Level FlightAware
04:38PM 41.3240 -105.7750 72° East 508 585 37,000  Level FlightAware
04:39PM 41.3590 -105.6380 71° East 507 583 37,000  Level FlightAware
04:40PM 41.3870 -105.5360 70° East 507 583 37,000  Level FlightAware
04:40PM 41.4250 -105.3830 72° East 511 588 37,000  Level FlightAware
04:41PM 41.4580 -105.2570 71° East 512 589 37,000  Level FlightAware
04:42PM 41.4869 -105.1420 71° East 514 592 37,000  Level FlightAware ADS-B
04:42PM 41.5097 -105.0520 71° East 514 592 37,000  Level FlightAware ADS-B
04:43PM 41.5339 -104.9560 71° East 514 592 37,000  Level FlightAware ADS-B
04:43PM 41.5570 -104.8640 71° East 514 592 37,000  Level FlightAware ADS-B
04:44PM 41.5795 -104.7740 71° East 515 593 37,000  Level FlightAware ADS-B
04:44PM 41.6028 -104.6810 71° East 514 592 37,000  Level FlightAware ADS-B
04:45PM 41.6257 -104.5890 72° East 515 593 37,000  Level FlightAware ADS-B
04:45PM 41.6488 -104.4960 72° East 515 593 37,000  Level FlightAware ADS-B
04:46PM 41.6712 -104.4050 72° East 514 592 37,000  Level FlightAware ADS-B
04:46PM 41.6960 -104.3040 72° East 515 593 37,000  Level FlightAware ADS-B
04:47PM 41.7186 -104.2120 72° East 515 593 37,000  Level FlightAware ADS-B
04:47PM 41.7435 -104.1100 72° East 514 592 37,000  Level FlightAware ADS-B
04:48PM 41.7658 -104.0180 72° East 514 592 37,000  Level FlightAware ADS-B
04:49PM 41.7882 -103.9250 72° East 515 593 37,000  Level FlightAware ADS-B
04:49PM 41.8103 -103.8340 72° East 516 594 37,000  Level FlightAware ADS-B
04:50PM 41.8332 -103.7380 72° East 515 593 37,000  Level FlightAware ADS-B
04:50PM 41.8617 -103.6190 72° East 516 594 37,000  Level FlightAware ADS-B
04:51PM 41.8837 -103.5240 73° East 517 595 37,000  Level FlightAware ADS-B
04:51PM 41.8997 -103.4390 76° East 517 595 37,000  Level FlightAware ADS-B
04:52PM 41.9143 -103.3420 79° East 517 595 37,000  Level FlightAware ADS-B
04:52PM 41.9280 -103.2450 79° East 517 595 37,000  Level FlightAware ADS-B
04:53PM 41.9415 -103.1470 79° East 517 595 37,000  Level FlightAware ADS-B
04:53PM 41.9568 -103.0360 79° East 515 593 37,000  Level FlightAware ADS-B
04:54PM 41.9699 -102.9410 79° East 515 593 37,000  Level FlightAware ADS-B
04:55PM 41.9952 -102.7540 80° East 514 592 37,000  Level FlightAware ADS-B
04:55PM 42.0090 -102.6520 80° East 514 592 37,000  Level FlightAware ADS-B
04:56PM 42.0288 -102.5050 80° East 514 592 37,000  Level FlightAware ADS-B
04:57PM 42.0417 -102.4080 80° East 514 592 37,000  Level FlightAware ADS-B
04:57PM 42.0542 -102.3130 80° East 514 592 37,000  Level FlightAware ADS-B
04:58PM 42.0826 -102.0950 80° East 516 594 37,000  Level FlightAware ADS-B
04:59PM 42.0972 -101.9820 80° East 516 594 37,000  Level FlightAware ADS-B
05:00PM 42.1219 -101.7880 80° East 515 593 37,000  Level FlightAware ADS-B
05:01PM 42.1344 -101.6906 80° East 514 592 37,000  Level Denver Center
05:02PM 42.1572 -101.5072 80° East 516 594 37,000  Level Denver Center
05:03PM 42.1839 -101.2944 80° East 516 594 37,000  Level Denver Center
05:04PM 42.2058 -101.1111 81° East 516 594 37,000  Level Denver Center
05:05PM 42.2311 -100.8961 81° East 518 596 37,000  Level Denver Center
05:11PM 42.4381 -99.7619 81° East 515 593 37,000  Level FlightAware ADS-B
05:11PM 42.4601 -99.6689 72° East 517 595 37,000  Level FlightAware ADS-B
05:11PM 42.4693 -99.6320 71° East 514 592 37,000  Level FlightAware ADS-B
05:12PM 42.4882 -99.5789 64° Northeast 504 580 37,000  Level FlightAware ADS-B
05:12PM 42.5248 -99.4961 59° Northeast 503 579 37,000  Level FlightAware ADS-B
05:13PM 42.5620 -99.4125 59° Northeast 504 580 37,000  Level FlightAware ADS-B
05:13PM 42.5985 -99.3300 59° Northeast 505 581 37,000  Level FlightAware ADS-B
05:14PM 42.6346 -99.2479 59° Northeast 505 581 37,000  Level FlightAware ADS-B
05:14PM 42.6712 -99.1658 59° Northeast 505 581 37,000  Level FlightAware ADS-B
05:15PM 42.7108 -99.0762 59° Northeast 506 582 37,000  Level FlightAware ADS-B
05:15PM 42.7344 -98.9757 72° East 514 592 37,000  Level FlightAware ADS-B
05:16PM 42.7436 -98.8764 83° East 532 612 37,000  Level FlightAware ADS-B
05:16PM 42.7490 -98.7754 86° East 534 615 37,000  Level FlightAware ADS-B
05:17PM 42.7525 -98.6747 87° East 534 615 37,000  Level FlightAware ADS-B
05:17PM 42.7553 -98.5731 88° East 534 615 37,000  Level FlightAware ADS-B
05:18PM 42.7578 -98.4722 88° East 535 616 37,000  Level FlightAware ADS-B
05:18PM 42.7603 -98.3552 88° East 534 615 37,000  Level FlightAware ADS-B
05:19PM 42.7639 -98.1772 88° East 534 615 37,000  Level FlightAware ADS-B
05:20PM 42.7656 -98.0760 89° East 534 615 37,000  Level FlightAware ADS-B
05:20PM 42.7673 -97.9741 89° East 534 615 37,000  Level FlightAware ADS-B
05:21PM 42.7688 -97.8735 89° East 533 613 37,000  Level FlightAware ADS-B
05:21PM 42.7705 -97.7620 89° East 532 612 37,000  Level FlightAware ADS-B
05:22PM 42.7719 -97.6616 89° East 531 611 37,000  Level FlightAware ADS-B
05:22PM 42.7733 -97.5613 89° East 530 610 37,000  Level FlightAware ADS-B
05:23PM 42.7746 -97.4576 89° East 530 610 37,000  Level FlightAware ADS-B
05:24PM 42.7770 -97.2420 89° East 530 610 37,000  Level FlightAware
05:25PM 42.7780 -97.1040 89° East 529 609 37,000  Level FlightAware
05:25PM 42.7800 -96.9590 89° East 528 608 37,000  Level FlightAware
05:26PM 42.7810 -96.8080 89° East 526 605 37,000  Level FlightAware
05:27PM 42.7810 -96.6740 90° East 525 604 37,000  Level FlightAware
05:28PM 42.7820 -96.5470 89° East 524 603 37,000  Level FlightAware
05:28PM 42.7830 -96.4320 89° East 524 603 37,000  Level FlightAware
05:28PM 42.7830 -96.3520 90° East 523 602 37,000  Level FlightAware
05:30PM 42.7830 -96.1470 90° East 520 598 37,000  Level FlightAware
05:30PM 42.7830 -96.0360 90° East 520 598 37,000  Level FlightAware
05:31PM 42.7830 -95.8990 90° East 519 597 37,000  Level FlightAware
05:31PM 42.7830 -95.7720 90° East 518 596 37,000  Level FlightAware
05:32PM 42.7820 -95.6290 90° East 517 595 37,000  Level FlightAware
05:33PM 42.7820 -95.4930 90° East 517 595 37,000  Level FlightAware
05:34PM 42.7810 -95.3630 91° East 516 594 37,000  Level FlightAware
05:34PM 42.7800 -95.2070 90° East 516 594 37,000  Level FlightAware
05:35PM 42.7790 -95.1040 91° East 516 594 37,000  Level FlightAware
05:36PM 42.7780 -94.9610 90° East 516 594 37,000  Level FlightAware
05:36PM 42.7770 -94.8320 91° East 516 594 37,000  Level FlightAware
05:37PM 42.7750 -94.7240 91° East 515 593 37,000  Level FlightAware
05:38PM 42.7740 -94.5860 91° East 516 594 37,000  Level FlightAware
05:38PM 42.7720 -94.4400 91° East 517 595 37,000  Level FlightAware
05:39PM 42.7700 -94.3370 91° East 518 596 37,000  Level FlightAware
05:40PM 42.7680 -94.1920 91° East 520 598 37,000  Level FlightAware
05:40PM 42.7660 -94.0670 91° East 521 600 37,000  Level FlightAware
05:41PM 42.7630 -93.9220 92° East 522 601 37,000  Level FlightAware
05:42PM 42.7610 -93.7860 91° East 523 602 37,000  Level FlightAware
05:42PM 42.7580 -93.6480 92° East 523 602 37,000  Level FlightAware
05:43PM 42.7550 -93.5150 92° East 524 603 37,000  Level FlightAware
05:44PM 42.7520 -93.3830 92° East 524 603 37,000  Level FlightAware
05:44PM 42.7490 -93.2470 92° East 524 603 37,000  Level FlightAware
05:45PM 42.7450 -93.1080 92° East 524 603 37,000  Level FlightAware
05:46PM 42.7420 -92.9820 92° East 523 602 37,000  Level FlightAware
05:46PM 42.7390 -92.8660 92° East 523 602 37,000  Level FlightAware
05:47PM 42.7350 -92.7270 92° East 523 602 37,000  Level FlightAware
05:48PM 42.7310 -92.5990 92° East 523 602 37,000  Level FlightAware
05:48PM 42.7270 -92.4520 92° East 523 602 37,000  Level FlightAware
05:49PM 42.7220 -92.3200 93° East 524 603 37,000  Level FlightAware
05:50PM 42.7170 -92.1630 92° East 523 602 37,000  Level FlightAware
05:51PM 42.7130 -92.0420 93° East 521 600 37,000  Level FlightAware
05:51PM 42.7080 -91.8890 92° East 520 598 37,000  Level FlightAware
05:52PM 42.7030 -91.7600 93° East 519 597 37,000  Level FlightAware
05:53PM 42.6980 -91.6180 93° East 518 596 37,000  Level FlightAware
05:53PM 42.6930 -91.4990 93° East 518 596 37,000  Level FlightAware
05:54PM 42.6870 -91.3430 93° East 518 596 37,000  Level FlightAware
05:55PM 42.6810 -91.2190 94° East 517 595 37,000  Level FlightAware
05:55PM 42.6760 -91.0970 93° East 518 596 37,000  Level FlightAware
05:56PM 42.6710 -90.9670 93° East 518 596 37,000  Level FlightAware
05:57PM 42.6640 -90.8260 94° East 519 597 37,000  Level FlightAware
05:57PM 42.6580 -90.6960 94° East 521 600 37,000  Level FlightAware
05:58PM 42.6510 -90.5350 93° East 521 600 37,000  Level FlightAware
05:59PM 42.6430 -90.3750 94° East 521 600 37,000  Level FlightAware
06:00PM 42.6360 -90.2460 94° East 521 600 37,000  Level FlightAware
06:00PM 42.6300 -90.1310 94° East 522 601 37,000  Level FlightAware
06:01PM 42.6230 -89.9860 94° East 522 601 37,000  Level FlightAware
06:02PM 42.6150 -89.8510 95° East 521 600 37,000  Level FlightAware
06:02PM 42.6080 -89.7080 94° East 521 600 37,000  Level FlightAware
06:03PM 42.6000 -89.5790 95° East 521 600 37,000  Level FlightAware
06:04PM 42.5920 -89.4390 94° East 521 600 37,000  Level FlightAware
06:05PM 42.5850 -89.3080 94° East 521 600 37,000  Level FlightAware
06:05PM 42.5760 -89.1610 95° East 522 601 37,000  Level FlightAware
06:06PM 42.5680 -89.0360 95° East 521 600 37,000  Level FlightAware
06:07PM 42.5590 -88.8860 95° East 522 601 37,000  Level FlightAware
06:07PM 42.5510 -88.7560 95° East 522 601 37,000  Level FlightAware
06:08PM 42.5420 -88.6140 95° East 523 602 37,000  Level FlightAware
06:09PM 42.5330 -88.4820 95° East 523 602 37,000  Level FlightAware
06:09PM 42.5230 -88.3400 95° East 523 602 37,000  Level FlightAware
06:10PM 42.5150 -88.2120 95° East 524 603 37,000  Level FlightAware
06:11PM 42.5050 -88.0720 95° East 525 604 37,000  Level FlightAware
06:11PM 42.5000 -87.9510 93° East 524 603 37,000  Level FlightAware
06:12PM 42.5000 -87.8090 90° East 523 602 37,000  Level FlightAware
06:13PM 42.4990 -87.6570 90° East 523 602 37,000  Level FlightAware
06:14PM 42.4990 -87.5380 90° East 524 603 37,000  Level FlightAware
06:14PM 42.4990 -87.3870 90° East 524 603 37,000  Level FlightAware
06:15PM 42.4980 -87.2530 91° East 524 603 37,000  Level FlightAware
06:16PM 42.4970 -87.1230 91° East 524 603 37,000  Level FlightAware
06:16PM 42.4960 -86.9790 90° East 524 603 37,000  Level FlightAware
06:17PM 42.4940 -86.8310 91° East 523 602 37,000  Level FlightAware
06:18PM 42.4930 -86.7100 91° East 523 602 37,000  Level FlightAware
06:19PM 42.4910 -86.5590 91° East 523 602 37,000  Level FlightAware
06:19PM 42.4890 -86.4010 91° East 524 603 37,000  Level FlightAware
06:20PM 42.4870 -86.2580 91° East 524 603 37,000  Level FlightAware
06:21PM 42.4850 -86.1270 91° East 525 604 37,000  Level FlightAware
06:21PM 42.4830 -85.9820 91° East 525 604 37,000  Level FlightAware
06:23PM 42.4790 -85.7660 91° East 525 604 37,000  Level FlightAware
06:23PM 42.4770 -85.6620 91° East 524 603 37,000  Level FlightAware
06:24PM 42.4740 -85.5170 92° East 524 603 37,000  Level FlightAware
06:25PM 42.4710 -85.3860 92° East 525 604 37,000  Level FlightAware
06:25PM 42.4690 -85.2810 91° East 525 604 37,000  Level FlightAware
06:26PM 42.4650 -85.1350 92° East 525 604 37,000  Level FlightAware
06:27PM 42.4610 -84.9940 92° East 525 604 37,000  Level FlightAware
06:27PM 42.4570 -84.8150 92° East 525 604 37,000  Level FlightAware
06:28PM 42.4530 -84.6840 92° East 525 604 37,000  Level FlightAware
06:29PM 42.4490 -84.5440 92° East 525 604 37,000  Level FlightAware
06:30PM 42.4450 -84.4090 92° East 525 604 37,000  Level FlightAware
06:30PM 42.4400 -84.2640 93° East 525 604 37,000  Level FlightAware
06:31PM 42.4360 -84.1370 92° East 525 604 37,000  Level FlightAware
06:32PM 42.4310 -83.9800 92° East 525 604 37,000  Level FlightAware
06:32PM 42.4260 -83.8490 93° East 526 605 37,000  Level FlightAware
06:33PM 42.4210 -83.7070 93° East 526 605 37,000  Level FlightAware
06:34PM 42.4160 -83.5870 93° East 526 605 37,000  Level FlightAware
06:34PM 42.4100 -83.4290 93° East 525 604 37,000  Level FlightAware
06:35PM 42.4050 -83.3010 93° East 523 602 37,000  Level FlightAware
06:36PM 42.3990 -83.1570 93° East 521 600 37,000  Level FlightAware
06:37PM 42.3940 -83.0310 93° East 521 600 37,000  Level FlightAware
06:37PM 42.3890 -82.9220 94° East 520 598 37,000  Level FlightAware
06:38PM 42.3870 -82.7300 91° East 517 595 37,000  Level FlightAware
06:39PM 42.3960 -82.6130 84° East 515 593 37,000  Level FlightAware
06:39PM 42.4050 -82.4870 84° East 515 593 37,000  Level FlightAware
06:40PM 42.4180 -82.3450 83° East 514 592 37,000  Level FlightAware
06:41PM 42.4280 -82.2300 83° East 513 590 37,000  Level FlightAware
06:41PM 42.4390 -82.1120 83° East 513 590 37,000  Level FlightAware
06:42PM 42.4520 -81.9680 83° East 512 589 37,000  Level FlightAware
06:43PM 42.4640 -81.8350 83° East 511 588 37,000  Level FlightAware
06:44PM 42.4710 -81.7090 86° East 512 589 37,000  Level FlightAware
06:44PM 42.4670 -81.5860 92° East 511 588 37,000  Level FlightAware
06:45PM 42.4540 -81.4450 97° East 512 589 37,000  Level FlightAware
06:45PM 42.4380 -81.3210 100° East 511 588 37,000  Level FlightAware
06:46PM 42.4230 -81.2170 101° East 510 587 37,000  Level FlightAware
06:47PM 42.4010 -81.0660 101° East 511 588 37,000  Level FlightAware
06:47PM 42.3820 -80.9420 102° East 513 590 37,000  Level FlightAware
06:48PM 42.3630 -80.8160 101° East 514 592 37,000  Level FlightAware
06:49PM 42.3400 -80.6730 102° East 514 592 37,000  Level FlightAware
06:50PM 42.3220 -80.5520 101° East 514 592 37,000  Level FlightAware
06:50PM 42.2980 -80.4080 103° East 511 588 37,000  Level FlightAware
06:51PM 42.2810 -80.3100 103° East 511 588 37,000  Level FlightAware
06:52PM 42.2570 -80.1760 104° East 509 586 37,000  Level FlightAware
06:52PM 42.2320 -80.0380 104° East 511 588 37,000  Level FlightAware
06:53PM 42.2170 -79.9530 103° East 510 587 37,000  Level FlightAware
06:54PM 42.1920 -79.8100 103° East 509 586 37,000  Level FlightAware
06:54PM 42.1690 -79.6880 104° East 509 586 37,000  Level FlightAware
06:55PM 42.1510 -79.5870 103° East 509 586 37,000  Level FlightAware
06:55PM 42.1270 -79.4530 104° East 506 582 37,000  Level FlightAware
06:56PM 42.1010 -79.3150 104° East 508 585 37,000  Level FlightAware
06:57PM 42.0800 -79.1970 103° East 511 588 37,000  Level FlightAware
06:58PM 42.0540 -79.0610 104° East 511 588 37,000  Level FlightAware
06:58PM 42.0310 -78.9370 104° East 512 589 37,000  Level FlightAware
06:59PM 42.0070 -78.8120 104° East 513 590 37,000  Level FlightAware
07:00PM 41.9830 -78.6830 104° East 514 592 37,000  Level FlightAware
07:00PM 41.9600 -78.5620 104° East 514 592 37,000  Level FlightAware
07:01PM 41.9320 -78.4230 105° East 514 592 37,000  Level FlightAware
07:02PM 41.9010 -78.3190 112° Southeast 509 586 37,000  Level FlightAware
07:02PM 41.8550 -78.1990 117° Southeast 506 582 37,000  Level FlightAware
07:03PM 41.8120 -78.0620 113° Southeast 512 589 37,000  Level FlightAware
07:04PM 41.7990 -77.9590 100° East 513 590 37,000  Level FlightAware
07:04PM 41.7800 -77.8150 100° East 511 588 37,000  Level FlightAware
07:05PM 41.7640 -77.7050 101° East 507 583 37,000  Level FlightAware
07:06PM 41.7430 -77.5640 101° East 505 581 37,000  Level FlightAware
07:07PM 41.7230 -77.4370 102° East 503 579 37,000  Level FlightAware
07:07PM 41.7070 -77.3290 101° East 501 577 37,000  Level FlightAware
07:08PM 41.6850 -77.1930 102° East 497 572 37,000  Level FlightAware
07:09PM 41.6600 -77.0810 107° East 491 565 37,000  Level FlightAware
07:09PM 41.6270 -76.9580 110° East 489 563 37,000  Level FlightAware
07:10PM 41.6030 -76.8700 110° East 487 560 37,000  Level FlightAware
07:11PM 41.5670 -76.7410 110° East 486 559 37,000  Level FlightAware
07:11PM 41.5381 -76.6353 110° East 486 559 37,000 -540 Level FlightAware ADS-B
07:12PM 41.5096 -76.5318 110° East 487 560 36,400 -1,140 Descending FlightAware ADS-B
07:12PM 41.4840 -76.4395 110° East 490 564 35,700 -1,260 Descending FlightAware ADS-B
07:13PM 41.4595 -76.3516 110° East 490 564 35,100 -1,080 Descending FlightAware ADS-B
07:13PM 41.4300 -76.2456 110° East 489 563 34,500 -1,140 Descending FlightAware ADS-B
07:14PM 41.3994 -76.1363 110° East 490 564 33,700 -1,140 Descending FlightAware ADS-B
07:15PM 41.3746 -76.0480 110° East 489 563 33,200 -1,080 Descending FlightAware ADS-B
07:15PM 41.3498 -75.9602 111° Southeast 488 562 32,600 -1,380 Descending FlightAware ADS-B
07:16PM 41.3248 -75.8718 111° Southeast 491 565 31,800 -2,040 Descending FlightAware ADS-B
07:16PM 41.3007 -75.7870 111° Southeast 494 568 30,500 -2,880 Descending FlightAware ADS-B
07:17PM 41.2735 -75.6937 111° Southeast 493 567 28,800 -2,940 Descending FlightAware ADS-B
07:17PM 41.2457 -75.6070 113° Southeast 487 560 27,400 -2,640 Descending FlightAware ADS-B
07:18PM 41.2174 -75.5221 114° Southeast 480 552 26,100 -2,520 Descending FlightAware ADS-B
07:18PM 41.1896 -75.4397 114° Southeast 474 545 24,800 -2,580 Descending FlightAware ADS-B
07:19PM 41.1629 -75.3603 114° Southeast 466 536 23,500 -1,800 Descending FlightAware ADS-B
07:19PM 41.1361 -75.2809 114° Southeast 450 518 23,000 -720 Descending FlightAware ADS-B
07:20PM 41.1114 -75.2078 114° Southeast 423 487 22,800 -780 Descending FlightAware ADS-B
07:20PM 41.0866 -75.1349 114° Southeast 401 461 22,200 -1,080 Descending FlightAware ADS-B
07:21PM 41.0641 -75.0687 114° Southeast 386 444 21,700 -1,020 Descending FlightAware ADS-B
07:21PM 41.0412 -75.0016 114° Southeast 371 427 21,200 -720 Descending FlightAware ADS-B
07:22PM 41.0208 -74.9418 114° Southeast 343 395 21,000 -240 Descending FlightAware ADS-B
07:22PM 41.0032 -74.8897 114° Southeast 330 380 21,000  Level FlightAware ADS-B
07:22PM 40.9986 -74.8725 110° East 330 380 21,000  Level FlightAware ADS-B
07:23PM 40.9946 -74.8528 105° East 330 380 21,000  Level FlightAware ADS-B
07:23PM 40.9860 -74.7902 100° East 330 380 21,000  Level FlightAware ADS-B
07:24PM 40.9741 -74.7254 104° East 330 380 21,000 -420 Level FlightAware ADS-B
07:24PM 40.9615 -74.6655 106° East 334 384 20,600 -1,560 Descending FlightAware ADS-B
07:25PM 40.9469 -74.6002 106° East 355 409 19,400 -2,040 Descending FlightAware ADS-B
07:25PM 40.9421 -74.5786 106° East 355 409 19,200 -780 Descending FlightAware ADS-B
07:25PM 40.9318 -74.5323 106° East 349 402 19,000 -360 Descending FlightAware ADS-B
07:25PM 40.9268 -74.5101 107° East 349 402 19,000  Level FlightAware ADS-B
07:26PM 40.9169 -74.4658 106° East 349 402 19,000  Level FlightAware ADS-B
07:26PM 40.9040 -74.4072 106° East 349 402 19,000  Level FlightAware ADS-B
07:26PM 40.9031 -74.4031 106° East 351 404 19,000  Level FlightAware ADS-B
07:27PM 40.8881 -74.3354 106° East 352 405 19,000  Level FlightAware ADS-B
07:27PM 40.8737 -74.2698 106° East 352 405 19,000  Level FlightAware ADS-B
07:28PM 40.8657 -74.2362 107° East 351 404 19,000  Level FlightAware ADS-B
07:28PM 40.8622 -74.2262 115° Southeast 348 400 19,000  Level FlightAware ADS-B
07:28PM 40.8571 -74.2150 121° Southeast 346 398 19,000  Level FlightAware ADS-B
07:28PM 40.8489 -74.2015 129° Southeast 340 391 19,000  Level FlightAware ADS-B
07:28PM 40.8419 -74.1929 137° Southeast 338 389 19,000 -540 Level FlightAware ADS-B
07:29PM 40.8036 -74.1547 143° Southeast 336 387 18,700 -1,020 Descending FlightAware ADS-B
07:29PM 40.7608 -74.1133 144° Southeast 334 384 17,900 -1,560 Descending FlightAware ADS-B
07:29PM 40.7443 -74.0973 144° Southeast 333 383 17,500 -1,560 Descending FlightAware ADS-B
07:30PM 40.7226 -74.0765 144° Southeast 328 377 17,100 -1,380 Descending FlightAware ADS-B
07:30PM 40.7105 -74.0676 151° Southeast 321 369 16,900 -2,160 Descending FlightAware ADS-B
07:30PM 40.6683 -74.0493 162° South 314 361 15,700 -2,400 Descending FlightAware ADS-B
07:30PM 40.6620 -74.0469 164° South 314 361 15,500 -2,760 Descending FlightAware ADS-B
07:31PM 40.6263 -74.0334 164° South 313 360 14,300 -2,160 Descending FlightAware ADS-B
07:31PM 40.5840 -74.0171 164° South 313 360 13,500 -1,800 Descending FlightAware ADS-B
07:32PM 40.5536 -73.9940 150° Southeast 313 360 12,700 -2,340 Descending FlightAware ADS-B
07:32PM 40.5337 -73.9481 120° Southeast 314 361 11,500 -2,280 Descending FlightAware ADS-B
07:33PM 40.5156 -73.8954 114° Southeast 316 364 10,500 -1,740 Descending FlightAware ADS-B
07:33PM 40.5027 -73.8583 115° Southeast 313 360 10,000 -1,500 Descending FlightAware ADS-B
07:33PM 40.4931 -73.8309 115° Southeast 312 359 9,600 -1,320 Descending FlightAware ADS-B
07:34PM 40.4857 -73.8111 116° Southeast 309 356 9,400 -1,440 Descending FlightAware ADS-B
07:34PM 40.4811 -73.8025 125° Southeast 306 352 9,200 -1,620 Descending FlightAware ADS-B
07:34PM 40.4620 -73.7839 143° Southeast 292 336 8,800 -1,320 Descending FlightAware ADS-B
07:34PM 40.4551 -73.7811 163° South 291 335 8,700 -1,200 Descending FlightAware ADS-B
07:34PM 40.4483 -73.7796 170° South 287 330 8,600 -1,800 Descending FlightAware ADS-B
07:34PM 40.4418 -73.7796 180° South 284 327 8,400 -1,380 Descending FlightAware ADS-B
07:34PM 40.4361 -73.7806 188° South 280 322 8,400 -780 Level FlightAware ADS-B
07:34PM 40.4313 -73.7822 194° South 278 320 8,300 -720 Descending FlightAware ADS-B
07:34PM 40.4255 -73.7847 198° South 277 319 8,300  Level FlightAware ADS-B
07:35PM 40.4147 -73.7906 203° Southwest 277 319 8,300  Level FlightAware ADS-B
07:35PM 40.3931 -73.8032 204° Southwest 277 319 8,300  Level FlightAware ADS-B
07:35PM 40.3718 -73.8194 210° Southwest 272 313 8,300  Level FlightAware ADS-B
07:35PM 40.3614 -73.8352 229° Southwest 270 311 8,300  Level FlightAware ADS-B
07:36PM 40.3496 -73.8569 234° Southwest 271 312 8,300  Level FlightAware ADS-B
07:36PM 40.3389 -73.8749 232° Southwest 271 312 8,300  Level FlightAware ADS-B
07:36PM 40.3329 -73.8815 220° Southwest 272 313 8,300  Level FlightAware ADS-B
07:36PM 40.3288 -73.8847 211° Southwest 273 314 8,300 -360 Level FlightAware ADS-B
07:36PM 40.3128 -73.8909 196° South 279 321 8,200 -600 Descending FlightAware ADS-B
07:36PM 40.3021 -73.8922 185° South 279 321 8,100 -1,140 Descending FlightAware ADS-B
07:37PM 40.2840 -73.8920 180° South 280 322 7,800 -1,500 Descending FlightAware ADS-B
07:37PM 40.2767 -73.8897 166° South 284 327 7,600 -1,320 Descending FlightAware ADS-B
07:37PM 40.2675 -73.8840 155° Southeast 286 329 7,500 -1,140 Descending FlightAware ADS-B
07:37PM 40.2587 -73.8748 141° Southeast 288 331 7,300 -1,200 Descending FlightAware ADS-B
07:37PM 40.2532 -73.8660 129° Southeast 290 334 7,200 -1,500 Descending FlightAware ADS-B
07:37PM 40.2402 -73.8412 124° Southeast 292 336 6,700 -1,680 Descending FlightAware ADS-B
07:38PM 40.2198 -73.8026 125° Southeast 296 341 6,000 -1,380 Descending FlightAware ADS-B
07:38PM 40.2034 -73.7675 121° Southeast 296 341 5,600 -1,140 Descending FlightAware ADS-B
07:39PM 40.2023 -73.7333 92° East 297 342 5,200 -1,140 Descending FlightAware ADS-B
07:39PM 40.2360 -73.6870 46° Northeast 278 320 4,500 -1,080 Descending FlightAware
07:39PM 40.2470 -73.6780 32° Northeast 276 318 4,300 -540 Descending FlightAware
07:40PM 40.2641 -73.6650 30° Northeast 297 342 4,300  Level FlightAware ADS-B
07:40PM 40.3090 -73.6300 31° Northeast 235 270 4,300  Level FlightAware
07:41PM 40.3254 -73.6176 30° Northeast 232 267 4,300  Level FlightAware ADS-B
07:42PM 40.3760 -73.5770 31° Northeast 236 272 4,300  Level FlightAware
07:42PM 40.4000 -73.5580 31° Northeast 236 272 4,300  Level FlightAware
07:43PM 40.4230 -73.5390 32° Northeast 236 272 4,300  Level FlightAware
07:43PM 40.4500 -73.5170 32° Northeast 234 269 4,300  Level FlightAware
07:44PM 40.4820 -73.4930 30° Northeast 236 272 4,300  Level FlightAware
07:44PM 40.4990 -73.4790 32° Northeast 234 269 4,300  Level FlightAware
07:44PM 40.5250 -73.4590 30° Northeast 234 269 4,300  Level FlightAware
07:45PM 40.5510 -73.4390 30° Northeast 235 270 4,300  Level FlightAware
07:45PM 40.5780 -73.4180 31° Northeast 233 268 4,300  Level FlightAware
07:45PM 40.5890 -73.4100 29° Northeast 234 269 4,300  Level FlightAware
07:46PM 40.6160 -73.3900 29° Northeast 232 267 4,300  Level FlightAware
07:46PM 40.6310 -73.3790 29° Northeast 232 267 4,300  Level FlightAware
07:47PM 40.6570 -73.3590 30° Northeast 233 268 4,300  Level FlightAware
07:47PM 40.6840 -73.3380 31° Northeast 234 269 4,300  Level FlightAware
07:48PM 40.7070 -73.3210 29° Northeast 234 269 4,300  Level FlightAware
07:48PM 40.7370 -73.3080 18° North 227 261 4,300  Level FlightAware
07:48PM 40.7620 -73.3080 360° North 226 260 4,300  Level FlightAware
07:49PM 40.7850 -73.3080 360° North 226 260 4,300 -420 Level FlightAware
07:51PM 40.8440 -73.4140 306° West 181 208 3,300 -420 Descending FlightAware
07:52PM 40.8460 -73.4470 275° West 180 207 3,300  Level FlightAware
07:52PM 40.8490 -73.4780 277° West 181 208 3,300  Level FlightAware
07:53PM 40.8510 -73.5100 275° West 181 208 3,300  Level FlightAware
07:53PM 40.8520 -73.5220 276° West 181 208 3,300  Level FlightAware
07:53PM 40.8550 -73.5610 276° West 181 208 3,300  Level FlightAware
07:54PM 40.8310 -73.5800 211° Southwest 184 212 3,300  Level FlightAware
07:54PM 40.8250 -73.5900 232° Southwest 184 212 3,300  Level FlightAware
07:54PM 40.8120 -73.6130 233° Southwest 183 211 3,300  Level FlightAware
07:55PM 40.7950 -73.6370 227° Southwest 185 213 3,300  Level FlightAware
07:55PM 40.7840 -73.6470 215° Southwest 186 214 3,300 -720 Level FlightAware
07:56PM 40.7620 -73.6640 210° Southwest 189 217 2,800 -1,020 Descending FlightAware
07:56PM 40.7470 -73.6750 209° Southwest 185 213 2,500 -900 Descending FlightAware
07:56PM 40.7270 -73.6910 211° Southwest 177 204 2,100 -840 Descending FlightAware
07:57PM 40.7160 -73.6990 209° Southwest 165 190 1,900 -720 Descending FlightAware
07:57PM 40.7010 -73.7110 211° Southwest 142 163 1,600 -720 Descending FlightAware
07:57PM 40.6930 -73.7180 214° Southwest 132 152 1,400 -780 Descending FlightAware
07:58PM 40.6800 -73.7270 208° Southwest 130 150 1,100 -660 Descending FlightAware
07:58PM 40.6670 -73.7370 210° Southwest 132 152 900 -720 Descending FlightAware
07:59PM 40.6520 -73.7490 211° Southwest 133 153 500 -720 Descending FlightAware
07:59PM 40.6410 -73.7580 212° Southwest 133 153 300 -600 Descending FlightAware
08:00PM 40.6300 -73.7670 212° Southwest 32 37 -540 Descending FlightAware
08:00PM 40.6300 -73.7680 270° West 26 30  Level FlightAware
08:00PM 40.6290 -73.7690 217° Southwest 17 20  Level FlightAware